sensor_id;sensor_type;location;lat;lon;timestamp;P1;durP1;ratioP1;P2;durP2;ratioP2
34491;SDS011;20737;49.908;8.126;2023-04-28T00:01:13;7.72;;;5.85;;
34491;SDS011;20737;49.908;8.126;2023-04-28T00:03:42;11.38;;;6.05;;
34491;SDS011;20737;49.908;8.126;2023-04-28T00:06:09;7.45;;;5.20;;
34491;SDS011;20737;49.908;8.126;2023-04-28T00:08:36;6.78;;;4.95;;
34491;SDS011;20737;49.908;8.126;2023-04-28T00:11:03;7.75;;;4.80;;
34491;SDS011;20737;49.908;8.126;2023-04-28T00:13:36;11.07;;;5.50;;
34491;SDS011;20737;49.908;8.126;2023-04-28T00:16:02;7.78;;;5.40;;
34491;SDS011;20737;49.908;8.126;2023-04-28T00:18:29;7.88;;;5.75;;
34491;SDS011;20737;49.908;8.126;2023-04-28T00:20:57;10.15;;;5.72;;
34491;SDS011;20737;49.908;8.126;2023-04-28T00:23:24;9.30;;;6.18;;
34491;SDS011;20737;49.908;8.126;2023-04-28T00:25:50;8.15;;;5.72;;
34491;SDS011;20737;49.908;8.126;2023-04-28T00:28:17;6.57;;;5.22;;
34491;SDS011;20737;49.908;8.126;2023-04-28T00:30:46;9.77;;;6.43;;
34491;SDS011;20737;49.908;8.126;2023-04-28T00:33:12;11.90;;;6.43;;
34491;SDS011;20737;49.908;8.126;2023-04-28T00:35:39;8.10;;;5.63;;
34491;SDS011;20737;49.908;8.126;2023-04-28T00:38:06;10.18;;;6.63;;
34491;SDS011;20737;49.908;8.126;2023-04-28T00:40:33;9.00;;;6.22;;
34491;SDS011;20737;49.908;8.126;2023-04-28T00:43:00;8.35;;;5.85;;
34491;SDS011;20737;49.908;8.126;2023-04-28T00:45:27;6.53;;;5.07;;
34491;SDS011;20737;49.908;8.126;2023-04-28T00:47:56;10.38;;;5.78;;
34491;SDS011;20737;49.908;8.126;2023-04-28T00:50:23;10.05;;;6.25;;
34491;SDS011;20737;49.908;8.126;2023-04-28T00:52:51;8.68;;;5.80;;
34491;SDS011;20737;49.908;8.126;2023-04-28T00:55:18;8.57;;;6.18;;
34491;SDS011;20737;49.908;8.126;2023-04-28T00:57:45;15.93;;;6.38;;
34491;SDS011;20737;49.908;8.126;2023-04-28T01:00:14;8.07;;;5.53;;
34491;SDS011;20737;49.908;8.126;2023-04-28T01:02:42;10.55;;;6.60;;
34491;SDS011;20737;49.908;8.126;2023-04-28T01:05:10;11.73;;;6.43;;
34491;SDS011;20737;49.908;8.126;2023-04-28T01:07:38;10.18;;;6.55;;
34491;SDS011;20737;49.908;8.126;2023-04-28T01:10:05;9.60;;;6.78;;
34491;SDS011;20737;49.908;8.126;2023-04-28T01:12:33;8.60;;;6.10;;
34491;SDS011;20737;49.908;8.126;2023-04-28T01:15:00;10.55;;;6.88;;
34491;SDS011;20737;49.908;8.126;2023-04-28T01:17:26;9.02;;;6.53;;
34491;SDS011;20737;49.908;8.126;2023-04-28T01:19:53;12.60;;;7.00;;
34491;SDS011;20737;49.908;8.126;2023-04-28T01:22:21;10.93;;;6.65;;
34491;SDS011;20737;49.908;8.126;2023-04-28T01:24:49;13.70;;;7.22;;
34491;SDS011;20737;49.908;8.126;2023-04-28T01:27:16;8.60;;;6.88;;
34491;SDS011;20737;49.908;8.126;2023-04-28T01:29:43;11.98;;;6.93;;
34491;SDS011;20737;49.908;8.126;2023-04-28T01:32:09;10.23;;;5.78;;
34491;SDS011;20737;49.908;8.126;2023-04-28T01:34:36;11.70;;;6.78;;
34491;SDS011;20737;49.908;8.126;2023-04-28T01:37:03;10.20;;;6.60;;
34491;SDS011;20737;49.908;8.126;2023-04-28T01:39:30;14.88;;;6.63;;
34491;SDS011;20737;49.908;8.126;2023-04-28T01:41:58;8.55;;;6.50;;
34491;SDS011;20737;49.908;8.126;2023-04-28T01:44:24;9.00;;;6.93;;
34491;SDS011;20737;49.908;8.126;2023-04-28T01:46:51;9.43;;;6.60;;
34491;SDS011;20737;49.908;8.126;2023-04-28T01:49:18;8.95;;;6.32;;
34491;SDS011;20737;49.908;8.126;2023-04-28T01:51:45;9.35;;;7.18;;
34491;SDS011;20737;49.908;8.126;2023-04-28T01:54:11;10.07;;;6.68;;
34491;SDS011;20737;49.908;8.126;2023-04-28T01:56:38;10.30;;;6.72;;
34491;SDS011;20737;49.908;8.126;2023-04-28T01:59:06;10.77;;;7.47;;
34491;SDS011;20737;49.908;8.126;2023-04-28T02:01:36;11.88;;;7.22;;
34491;SDS011;20737;49.908;8.126;2023-04-28T02:04:03;10.98;;;6.88;;
34491;SDS011;20737;49.908;8.126;2023-04-28T02:06:29;10.80;;;7.13;;
34491;SDS011;20737;49.908;8.126;2023-04-28T02:08:56;13.27;;;7.55;;
34491;SDS011;20737;49.908;8.126;2023-04-28T02:11:23;10.38;;;7.53;;
34491;SDS011;20737;49.908;8.126;2023-04-28T02:13:56;10.27;;;7.78;;
34491;SDS011;20737;49.908;8.126;2023-04-28T02:16:24;10.13;;;7.30;;
34491;SDS011;20737;49.908;8.126;2023-04-28T02:18:51;11.32;;;7.55;;
34491;SDS011;20737;49.908;8.126;2023-04-28T02:21:17;10.68;;;7.68;;
34491;SDS011;20737;49.908;8.126;2023-04-28T02:23:44;11.93;;;7.93;;
34491;SDS011;20737;49.908;8.126;2023-04-28T02:26:11;10.45;;;6.97;;
34491;SDS011;20737;49.908;8.126;2023-04-28T02:28:38;9.48;;;6.47;;
34491;SDS011;20737;49.908;8.126;2023-04-28T02:31:05;10.00;;;7.65;;
34491;SDS011;20737;49.908;8.126;2023-04-28T02:33:34;9.38;;;7.00;;
34491;SDS011;20737;49.908;8.126;2023-04-28T02:36:01;9.90;;;6.97;;
34491;SDS011;20737;49.908;8.126;2023-04-28T02:38:29;11.50;;;7.78;;
34491;SDS011;20737;49.908;8.126;2023-04-28T02:40:56;9.27;;;7.15;;
34491;SDS011;20737;49.908;8.126;2023-04-28T02:43:24;9.38;;;6.90;;
34491;SDS011;20737;49.908;8.126;2023-04-28T02:45:51;11.75;;;7.22;;
34491;SDS011;20737;49.908;8.126;2023-04-28T02:48:18;11.43;;;7.63;;
34491;SDS011;20737;49.908;8.126;2023-04-28T02:50:46;14.38;;;7.72;;
34491;SDS011;20737;49.908;8.126;2023-04-28T02:53:13;13.43;;;7.90;;
34491;SDS011;20737;49.908;8.126;2023-04-28T02:55:40;10.32;;;7.32;;
34491;SDS011;20737;49.908;8.126;2023-04-28T02:58:07;13.32;;;8.02;;
34491;SDS011;20737;49.908;8.126;2023-04-28T03:00:33;11.68;;;7.85;;
34491;SDS011;20737;49.908;8.126;2023-04-28T03:03:02;8.65;;;6.72;;
34491;SDS011;20737;49.908;8.126;2023-04-28T03:05:29;10.73;;;7.45;;
34491;SDS011;20737;49.908;8.126;2023-04-28T03:07:57;11.73;;;7.07;;
34491;SDS011;20737;49.908;8.126;2023-04-28T03:10:24;11.68;;;7.30;;
34491;SDS011;20737;49.908;8.126;2023-04-28T03:12:51;10.90;;;7.43;;
34491;SDS011;20737;49.908;8.126;2023-04-28T03:15:18;13.40;;;7.55;;
34491;SDS011;20737;49.908;8.126;2023-04-28T03:17:44;14.20;;;8.52;;
34491;SDS011;20737;49.908;8.126;2023-04-28T03:20:11;12.82;;;7.68;;
34491;SDS011;20737;49.908;8.126;2023-04-28T03:22:38;11.27;;;7.25;;
34491;SDS011;20737;49.908;8.126;2023-04-28T03:25:06;11.23;;;7.68;;
34491;SDS011;20737;49.908;8.126;2023-04-28T03:27:33;12.60;;;8.18;;
34491;SDS011;20737;49.908;8.126;2023-04-28T03:30:00;10.32;;;7.28;;
34491;SDS011;20737;49.908;8.126;2023-04-28T03:32:27;11.85;;;7.95;;
34491;SDS011;20737;49.908;8.126;2023-04-28T03:34:54;11.85;;;7.95;;
34491;SDS011;20737;49.908;8.126;2023-04-28T03:37:21;16.17;;;8.15;;
34491;SDS011;20737;49.908;8.126;2023-04-28T03:39:47;12.32;;;7.85;;
34491;SDS011;20737;49.908;8.126;2023-04-28T03:42:16;10.13;;;7.32;;
34491;SDS011;20737;49.908;8.126;2023-04-28T03:44:44;10.93;;;7.45;;
34491;SDS011;20737;49.908;8.126;2023-04-28T03:47:11;9.15;;;7.18;;
34491;SDS011;20737;49.908;8.126;2023-04-28T03:49:38;11.35;;;7.85;;
34491;SDS011;20737;49.908;8.126;2023-04-28T03:52:04;10.02;;;7.43;;
34491;SDS011;20737;49.908;8.126;2023-04-28T03:54:31;10.65;;;8.13;;
34491;SDS011;20737;49.908;8.126;2023-04-28T03:56:58;12.18;;;7.88;;
34491;SDS011;20737;49.908;8.126;2023-04-28T03:59:27;11.73;;;7.35;;
34491;SDS011;20737;49.908;8.126;2023-04-28T04:01:54;11.02;;;7.30;;
34491;SDS011;20737;49.908;8.126;2023-04-28T04:04:20;11.02;;;8.15;;
34491;SDS011;20737;49.908;8.126;2023-04-28T04:06:47;14.07;;;7.97;;
34491;SDS011;20737;49.908;8.126;2023-04-28T04:09:14;10.57;;;8.13;;
34491;SDS011;20737;49.908;8.126;2023-04-28T04:11:41;13.07;;;9.10;;
34491;SDS011;20737;49.908;8.126;2023-04-28T04:14:09;12.40;;;8.15;;
34491;SDS011;20737;49.908;8.126;2023-04-28T04:16:37;13.25;;;8.57;;
34491;SDS011;20737;49.908;8.126;2023-04-28T04:19:03;12.65;;;8.65;;
34491;SDS011;20737;49.908;8.126;2023-04-28T04:21:33;11.82;;;7.97;;
34491;SDS011;20737;49.908;8.126;2023-04-28T04:24:00;12.75;;;7.28;;
34491;SDS011;20737;49.908;8.126;2023-04-28T04:26:26;9.73;;;7.65;;
34491;SDS011;20737;49.908;8.126;2023-04-28T04:28:53;11.88;;;7.63;;
34491;SDS011;20737;49.908;8.126;2023-04-28T04:31:20;12.32;;;8.38;;
34491;SDS011;20737;49.908;8.126;2023-04-28T04:33:48;12.88;;;7.30;;
34491;SDS011;20737;49.908;8.126;2023-04-28T04:36:14;11.73;;;7.57;;
34491;SDS011;20737;49.908;8.126;2023-04-28T04:38:41;10.13;;;7.53;;
34491;SDS011;20737;49.908;8.126;2023-04-28T04:41:08;14.73;;;7.57;;
34491;SDS011;20737;49.908;8.126;2023-04-28T04:43:35;10.27;;;7.72;;
34491;SDS011;20737;49.908;8.126;2023-04-28T04:46:01;13.90;;;8.20;;
34491;SDS011;20737;49.908;8.126;2023-04-28T04:48:30;13.88;;;7.50;;
34491;SDS011;20737;49.908;8.126;2023-04-28T04:50:58;11.45;;;8.60;;
34491;SDS011;20737;49.908;8.126;2023-04-28T04:53:25;15.23;;;8.15;;
34491;SDS011;20737;49.908;8.126;2023-04-28T04:55:52;11.40;;;8.38;;
34491;SDS011;20737;49.908;8.126;2023-04-28T04:58:18;15.32;;;8.73;;
34491;SDS011;20737;49.908;8.126;2023-04-28T05:00:46;16.30;;;8.95;;
34491;SDS011;20737;49.908;8.126;2023-04-28T05:03:15;11.20;;;7.70;;
34491;SDS011;20737;49.908;8.126;2023-04-28T05:05:42;15.45;;;8.50;;
34491;SDS011;20737;49.908;8.126;2023-04-28T05:08:11;14.63;;;8.70;;
34491;SDS011;20737;49.908;8.126;2023-04-28T05:10:38;12.55;;;8.25;;
34491;SDS011;20737;49.908;8.126;2023-04-28T05:13:09;12.73;;;8.20;;
34491;SDS011;20737;49.908;8.126;2023-04-28T05:15:36;13.15;;;8.20;;
34491;SDS011;20737;49.908;8.126;2023-04-28T05:18:02;14.40;;;8.85;;
34491;SDS011;20737;49.908;8.126;2023-04-28T05:20:34;12.30;;;8.13;;
34491;SDS011;20737;49.908;8.126;2023-04-28T05:23:01;15.35;;;8.98;;
34491;SDS011;20737;49.908;8.126;2023-04-28T05:25:29;15.13;;;8.75;;
34491;SDS011;20737;49.908;8.126;2023-04-28T05:27:56;12.23;;;8.65;;
34491;SDS011;20737;49.908;8.126;2023-04-28T05:30:23;11.38;;;8.85;;
34491;SDS011;20737;49.908;8.126;2023-04-28T05:32:50;10.80;;;8.23;;
34491;SDS011;20737;49.908;8.126;2023-04-28T05:35:18;13.63;;;8.77;;
34491;SDS011;20737;49.908;8.126;2023-04-28T05:37:45;16.67;;;9.05;;
34491;SDS011;20737;49.908;8.126;2023-04-28T05:40:11;11.75;;;8.38;;
34491;SDS011;20737;49.908;8.126;2023-04-28T05:42:40;15.30;;;8.85;;
34491;SDS011;20737;49.908;8.126;2023-04-28T05:45:07;15.23;;;9.70;;
34491;SDS011;20737;49.908;8.126;2023-04-28T05:47:36;17.15;;;10.50;;
34491;SDS011;20737;49.908;8.126;2023-04-28T05:50:03;11.88;;;9.40;;
34491;SDS011;20737;49.908;8.126;2023-04-28T05:52:30;16.92;;;10.23;;
34491;SDS011;20737;49.908;8.126;2023-04-28T05:54:57;15.13;;;9.45;;
34491;SDS011;20737;49.908;8.126;2023-04-28T05:57:23;13.30;;;9.95;;
34491;SDS011;20737;49.908;8.126;2023-04-28T05:59:52;16.27;;;9.90;;
34491;SDS011;20737;49.908;8.126;2023-04-28T06:02:18;17.27;;;11.10;;
34491;SDS011;20737;49.908;8.126;2023-04-28T06:04:45;17.77;;;10.65;;
34491;SDS011;20737;49.908;8.126;2023-04-28T06:07:12;15.30;;;10.13;;
34491;SDS011;20737;49.908;8.126;2023-04-28T06:09:38;16.27;;;9.70;;
34491;SDS011;20737;49.908;8.126;2023-04-28T06:12:05;16.92;;;9.55;;
34491;SDS011;20737;49.908;8.126;2023-04-28T06:14:33;18.92;;;10.05;;
34491;SDS011;20737;49.908;8.126;2023-04-28T06:17:01;14.65;;;9.68;;
34491;SDS011;20737;49.908;8.126;2023-04-28T06:19:28;12.63;;;8.95;;
34491;SDS011;20737;49.908;8.126;2023-04-28T06:21:55;13.65;;;8.88;;
34491;SDS011;20737;49.908;8.126;2023-04-28T06:24:21;14.27;;;8.98;;
34491;SDS011;20737;49.908;8.126;2023-04-28T06:26:48;12.60;;;9.57;;
34491;SDS011;20737;49.908;8.126;2023-04-28T06:29:15;13.77;;;9.18;;
34491;SDS011;20737;49.908;8.126;2023-04-28T06:31:42;13.65;;;8.43;;
34491;SDS011;20737;49.908;8.126;2023-04-28T06:34:10;14.57;;;8.73;;
34491;SDS011;20737;49.908;8.126;2023-04-28T06:36:36;11.82;;;8.68;;
34491;SDS011;20737;49.908;8.126;2023-04-28T06:39:03;13.48;;;8.63;;
34491;SDS011;20737;49.908;8.126;2023-04-28T06:41:30;14.48;;;9.48;;
34491;SDS011;20737;49.908;8.126;2023-04-28T06:43:58;14.07;;;9.10;;
34491;SDS011;20737;49.908;8.126;2023-04-28T06:46:25;13.63;;;8.02;;
34491;SDS011;20737;49.908;8.126;2023-04-28T06:48:52;11.90;;;8.68;;
34491;SDS011;20737;49.908;8.126;2023-04-28T06:51:20;16.25;;;10.13;;
34491;SDS011;20737;49.908;8.126;2023-04-28T06:53:50;12.40;;;9.38;;
34491;SDS011;20737;49.908;8.126;2023-04-28T06:56:17;17.02;;;9.60;;
34491;SDS011;20737;49.908;8.126;2023-04-28T06:58:44;12.88;;;9.00;;
34491;SDS011;20737;49.908;8.126;2023-04-28T07:01:11;13.82;;;10.18;;
34491;SDS011;20737;49.908;8.126;2023-04-28T07:03:38;15.15;;;9.40;;
34491;SDS011;20737;49.908;8.126;2023-04-28T07:06:04;14.60;;;9.18;;
34491;SDS011;20737;49.908;8.126;2023-04-28T07:08:33;11.80;;;8.27;;
34491;SDS011;20737;49.908;8.126;2023-04-28T07:11:00;15.02;;;9.00;;
34491;SDS011;20737;49.908;8.126;2023-04-28T07:13:28;13.05;;;7.65;;
34491;SDS011;20737;49.908;8.126;2023-04-28T07:15:55;11.38;;;7.22;;
34491;SDS011;20737;49.908;8.126;2023-04-28T07:18:21;14.40;;;7.88;;
34491;SDS011;20737;49.908;8.126;2023-04-28T07:20:48;12.00;;;7.25;;
34491;SDS011;20737;49.908;8.126;2023-04-28T07:23:15;9.45;;;6.78;;
34491;SDS011;20737;49.908;8.126;2023-04-28T07:25:44;9.85;;;6.85;;
34491;SDS011;20737;49.908;8.126;2023-04-28T07:28:11;9.38;;;7.07;;
34491;SDS011;20737;49.908;8.126;2023-04-28T07:30:38;10.27;;;6.90;;
34491;SDS011;20737;49.908;8.126;2023-04-28T07:33:05;10.77;;;6.53;;
34491;SDS011;20737;49.908;8.126;2023-04-28T07:35:32;9.63;;;6.63;;
34491;SDS011;20737;49.908;8.126;2023-04-28T07:37:59;10.45;;;6.80;;
34491;SDS011;20737;49.908;8.126;2023-04-28T07:40:25;10.35;;;6.65;;
34491;SDS011;20737;49.908;8.126;2023-04-28T07:42:54;10.48;;;7.40;;
34491;SDS011;20737;49.908;8.126;2023-04-28T07:45:21;14.32;;;7.53;;
34491;SDS011;20737;49.908;8.126;2023-04-28T07:47:48;13.07;;;8.13;;
34491;SDS011;20737;49.908;8.126;2023-04-28T07:50:17;10.88;;;7.25;;
34491;SDS011;20737;49.908;8.126;2023-04-28T07:52:44;11.85;;;7.70;;
34491;SDS011;20737;49.908;8.126;2023-04-28T07:55:11;13.32;;;8.32;;
34491;SDS011;20737;49.908;8.126;2023-04-28T07:57:38;10.80;;;7.93;;
34491;SDS011;20737;49.908;8.126;2023-04-28T08:00:08;11.98;;;8.90;;
34491;SDS011;20737;49.908;8.126;2023-04-28T08:02:35;13.70;;;8.15;;
34491;SDS011;20737;49.908;8.126;2023-04-28T08:05:02;13.63;;;8.13;;
34491;SDS011;20737;49.908;8.126;2023-04-28T08:07:31;14.30;;;8.18;;
34491;SDS011;20737;49.908;8.126;2023-04-28T08:09:58;10.98;;;7.82;;
34491;SDS011;20737;49.908;8.126;2023-04-28T08:12:27;9.32;;;7.70;;
34491;SDS011;20737;49.908;8.126;2023-04-28T08:14:54;12.15;;;8.32;;
34491;SDS011;20737;49.908;8.126;2023-04-28T08:17:22;11.48;;;8.40;;
34491;SDS011;20737;49.908;8.126;2023-04-28T08:19:52;12.82;;;7.75;;
34491;SDS011;20737;49.908;8.126;2023-04-28T08:22:18;13.05;;;9.30;;
34491;SDS011;20737;49.908;8.126;2023-04-28T08:24:45;12.40;;;8.05;;
34491;SDS011;20737;49.908;8.126;2023-04-28T08:27:12;13.90;;;8.10;;
34491;SDS011;20737;49.908;8.126;2023-04-28T08:29:39;10.07;;;7.90;;
34491;SDS011;20737;49.908;8.126;2023-04-28T08:32:06;10.15;;;7.40;;
34491;SDS011;20737;49.908;8.126;2023-04-28T08:34:34;13.98;;;8.55;;
34491;SDS011;20737;49.908;8.126;2023-04-28T08:37:01;11.63;;;8.52;;
34491;SDS011;20737;49.908;8.126;2023-04-28T08:39:28;13.48;;;8.73;;
34491;SDS011;20737;49.908;8.126;2023-04-28T08:41:55;10.52;;;8.05;;
34491;SDS011;20737;49.908;8.126;2023-04-28T08:44:22;12.52;;;8.25;;
34491;SDS011;20737;49.908;8.126;2023-04-28T08:46:49;11.25;;;7.97;;
34491;SDS011;20737;49.908;8.126;2023-04-28T08:49:22;9.87;;;8.00;;
34491;SDS011;20737;49.908;8.126;2023-04-28T08:51:58;11.63;;;8.52;;
34491;SDS011;20737;49.908;8.126;2023-04-28T08:54:25;10.43;;;7.88;;
34491;SDS011;20737;49.908;8.126;2023-04-28T08:56:56;13.00;;;7.90;;
34491;SDS011;20737;49.908;8.126;2023-04-28T08:59:25;13.38;;;7.63;;
34491;SDS011;20737;49.908;8.126;2023-04-28T09:01:52;11.23;;;8.27;;
34491;SDS011;20737;49.908;8.126;2023-04-28T09:04:21;15.75;;;8.65;;
34491;SDS011;20737;49.908;8.126;2023-04-28T09:06:48;12.30;;;8.55;;
34491;SDS011;20737;49.908;8.126;2023-04-28T09:09:23;10.70;;;8.93;;
34491;SDS011;20737;49.908;8.126;2023-04-28T09:11:51;13.75;;;9.02;;
34491;SDS011;20737;49.908;8.126;2023-04-28T09:14:19;13.68;;;9.32;;
34491;SDS011;20737;49.908;8.126;2023-04-28T09:16:46;13.52;;;9.77;;
34491;SDS011;20737;49.908;8.126;2023-04-28T09:19:13;11.75;;;8.73;;
34491;SDS011;20737;49.908;8.126;2023-04-28T09:21:50;12.75;;;9.00;;
34491;SDS011;20737;49.908;8.126;2023-04-28T09:24:26;12.80;;;9.32;;
34491;SDS011;20737;49.908;8.126;2023-04-28T09:26:54;13.65;;;9.15;;
34491;SDS011;20737;49.908;8.126;2023-04-28T09:29:21;12.95;;;9.02;;
34491;SDS011;20737;49.908;8.126;2023-04-28T09:31:48;14.70;;;9.18;;
34491;SDS011;20737;49.908;8.126;2023-04-28T09:34:14;16.92;;;9.25;;
34491;SDS011;20737;49.908;8.126;2023-04-28T09:36:41;13.65;;;9.13;;
34491;SDS011;20737;49.908;8.126;2023-04-28T09:39:08;13.98;;;9.10;;
34491;SDS011;20737;49.908;8.126;2023-04-28T09:41:37;11.30;;;8.65;;
34491;SDS011;20737;49.908;8.126;2023-04-28T09:44:09;12.18;;;8.23;;
34491;SDS011;20737;49.908;8.126;2023-04-28T09:46:39;15.23;;;7.90;;
34491;SDS011;20737;49.908;8.126;2023-04-28T09:49:06;11.60;;;8.15;;
34491;SDS011;20737;49.908;8.126;2023-04-28T09:51:33;10.85;;;7.47;;
34491;SDS011;20737;49.908;8.126;2023-04-28T09:54:00;10.73;;;8.27;;
34491;SDS011;20737;49.908;8.126;2023-04-28T09:56:28;11.10;;;7.93;;
34491;SDS011;20737;49.908;8.126;2023-04-28T09:58:58;10.68;;;8.73;;
34491;SDS011;20737;49.908;8.126;2023-04-28T10:01:26;11.60;;;8.35;;
34491;SDS011;20737;49.908;8.126;2023-04-28T10:03:56;10.60;;;7.65;;
34491;SDS011;20737;49.908;8.126;2023-04-28T10:06:24;13.07;;;7.90;;
34491;SDS011;20737;49.908;8.126;2023-04-28T10:08:54;9.50;;;7.18;;
34491;SDS011;20737;49.908;8.126;2023-04-28T10:11:22;10.52;;;7.90;;
34491;SDS011;20737;49.908;8.126;2023-04-28T10:13:49;11.13;;;8.35;;
34491;SDS011;20737;49.908;8.126;2023-04-28T10:16:19;8.98;;;7.28;;
34491;SDS011;20737;49.908;8.126;2023-04-28T10:18:47;10.05;;;7.55;;
34491;SDS011;20737;49.908;8.126;2023-04-28T10:21:15;9.77;;;7.10;;
34491;SDS011;20737;49.908;8.126;2023-04-28T10:29:28;7.60;;;6.78;;
34491;SDS011;20737;49.908;8.126;2023-04-28T10:34:53;9.63;;;7.28;;
34491;SDS011;20737;49.908;8.126;2023-04-28T10:38:03;9.50;;;7.32;;
34491;SDS011;20737;49.908;8.126;2023-04-28T10:40:32;13.00;;;8.18;;
34491;SDS011;20737;49.908;8.126;2023-04-28T10:43:00;10.00;;;7.25;;
34491;SDS011;20737;49.908;8.126;2023-04-28T10:48:53;10.40;;;7.72;;
34491;SDS011;20737;49.908;8.126;2023-04-28T10:51:21;9.70;;;7.57;;
34491;SDS011;20737;49.908;8.126;2023-04-28T10:56:35;11.30;;;8.18;;
34491;SDS011;20737;49.908;8.126;2023-04-28T10:59:23;9.70;;;7.13;;
34491;SDS011;20737;49.908;8.126;2023-04-28T11:01:52;11.20;;;8.15;;
34491;SDS011;20737;49.908;8.126;2023-04-28T11:04:20;12.88;;;7.57;;
34491;SDS011;20737;49.908;8.126;2023-04-28T11:07:08;9.98;;;7.20;;
34491;SDS011;20737;49.908;8.126;2023-04-28T11:09:46;9.52;;;7.50;;
34491;SDS011;20737;49.908;8.126;2023-04-28T11:12:14;10.32;;;7.68;;
34491;SDS011;20737;49.908;8.126;2023-04-28T11:14:41;12.45;;;7.85;;
34491;SDS011;20737;49.908;8.126;2023-04-28T11:17:08;9.10;;;8.05;;
34491;SDS011;20737;49.908;8.126;2023-04-28T11:19:38;10.30;;;7.97;;
34491;SDS011;20737;49.908;8.126;2023-04-28T11:22:13;13.93;;;8.35;;
34491;SDS011;20737;49.908;8.126;2023-04-28T11:24:53;9.82;;;7.95;;
34491;SDS011;20737;49.908;8.126;2023-04-28T11:27:22;11.90;;;8.52;;
34491;SDS011;20737;49.908;8.126;2023-04-28T11:29:49;11.43;;;8.77;;
34491;SDS011;20737;49.908;8.126;2023-04-28T11:32:16;12.85;;;8.20;;
34491;SDS011;20737;49.908;8.126;2023-04-28T11:34:53;10.70;;;8.52;;
34491;SDS011;20737;49.908;8.126;2023-04-28T11:37:20;10.15;;;7.55;;
34491;SDS011;20737;49.908;8.126;2023-04-28T11:39:47;12.65;;;8.55;;
34491;SDS011;20737;49.908;8.126;2023-04-28T11:42:14;10.90;;;7.80;;
34491;SDS011;20737;49.908;8.126;2023-04-28T11:44:41;10.70;;;8.00;;
34491;SDS011;20737;49.908;8.126;2023-04-28T11:47:15;11.48;;;8.30;;
34491;SDS011;20737;49.908;8.126;2023-04-28T11:49:42;13.13;;;8.50;;
34491;SDS011;20737;49.908;8.126;2023-04-28T11:52:11;14.07;;;9.73;;
34491;SDS011;20737;49.908;8.126;2023-04-28T11:54:38;13.02;;;8.20;;
34491;SDS011;20737;49.908;8.126;2023-04-28T11:57:08;13.35;;;8.45;;
34491;SDS011;20737;49.908;8.126;2023-04-28T11:59:43;13.25;;;8.38;;
34491;SDS011;20737;49.908;8.126;2023-04-28T12:02:10;11.55;;;7.38;;
34491;SDS011;20737;49.908;8.126;2023-04-28T12:04:37;10.93;;;7.03;;
34491;SDS011;20737;49.908;8.126;2023-04-28T12:07:06;8.93;;;6.95;;
34491;SDS011;20737;49.908;8.126;2023-04-28T12:09:36;8.27;;;6.95;;
34491;SDS011;20737;49.908;8.126;2023-04-28T12:12:04;9.75;;;7.05;;
34491;SDS011;20737;49.908;8.126;2023-04-28T12:14:32;8.25;;;7.13;;
34491;SDS011;20737;49.908;8.126;2023-04-28T12:17:22;8.40;;;7.47;;
34491;SDS011;20737;49.908;8.126;2023-04-28T12:19:49;12.35;;;8.05;;
34491;SDS011;20737;49.908;8.126;2023-04-28T12:22:16;9.68;;;8.27;;
34491;SDS011;20737;49.908;8.126;2023-04-28T12:24:44;8.07;;;7.25;;
34491;SDS011;20737;49.908;8.126;2023-04-28T12:27:18;9.68;;;7.15;;
34491;SDS011;20737;49.908;8.126;2023-04-28T12:29:46;7.95;;;7.15;;
34491;SDS011;20737;49.908;8.126;2023-04-28T12:32:13;8.25;;;7.43;;
34491;SDS011;20737;49.908;8.126;2023-04-28T12:34:41;7.63;;;6.85;;
34491;SDS011;20737;49.908;8.126;2023-04-28T12:37:10;8.45;;;7.18;;
34491;SDS011;20737;49.908;8.126;2023-04-28T12:39:38;9.18;;;7.97;;
34491;SDS011;20737;49.908;8.126;2023-04-28T12:42:08;7.05;;;5.85;;
34491;SDS011;20737;49.908;8.126;2023-04-28T12:44:35;6.53;;;4.70;;
34491;SDS011;20737;49.908;8.126;2023-04-28T12:47:03;5.57;;;5.07;;
34491;SDS011;20737;49.908;8.126;2023-04-28T12:49:31;7.18;;;5.18;;
34491;SDS011;20737;49.908;8.126;2023-04-28T12:51:59;6.60;;;5.32;;
34491;SDS011;20737;49.908;8.126;2023-04-28T12:54:26;5.45;;;4.72;;
34491;SDS011;20737;49.908;8.126;2023-04-28T12:56:52;6.65;;;5.00;;
34491;SDS011;20737;49.908;8.126;2023-04-28T12:59:21;5.35;;;4.80;;
34491;SDS011;20737;49.908;8.126;2023-04-28T13:01:50;6.53;;;5.65;;
34491;SDS011;20737;49.908;8.126;2023-04-28T13:04:19;8.20;;;5.20;;
34491;SDS011;20737;49.908;8.126;2023-04-28T13:06:46;7.80;;;5.85;;
34491;SDS011;20737;49.908;8.126;2023-04-28T13:09:13;6.18;;;5.47;;
34491;SDS011;20737;49.908;8.126;2023-04-28T13:11:41;6.47;;;5.55;;
34491;SDS011;20737;49.908;8.126;2023-04-28T13:14:08;6.13;;;5.50;;
34491;SDS011;20737;49.908;8.126;2023-04-28T13:16:36;7.18;;;5.60;;
34491;SDS011;20737;49.908;8.126;2023-04-28T13:19:02;7.60;;;5.25;;
34491;SDS011;20737;49.908;8.126;2023-04-28T13:21:33;8.23;;;5.80;;
34491;SDS011;20737;49.908;8.126;2023-04-28T13:24:01;5.60;;;5.00;;
34491;SDS011;20737;49.908;8.126;2023-04-28T13:26:28;6.90;;;5.18;;
34491;SDS011;20737;49.908;8.126;2023-04-28T13:28:55;6.45;;;5.45;;
34491;SDS011;20737;49.908;8.126;2023-04-28T13:31:22;5.60;;;5.00;;
34491;SDS011;20737;49.908;8.126;2023-04-28T13:33:50;6.40;;;4.90;;
34491;SDS011;20737;49.908;8.126;2023-04-28T13:36:17;8.98;;;5.78;;
34491;SDS011;20737;49.908;8.126;2023-04-28T13:38:45;5.60;;;4.93;;
34491;SDS011;20737;49.908;8.126;2023-04-28T13:41:13;4.68;;;3.95;;
34491;SDS011;20737;49.908;8.126;2023-04-28T13:43:39;3.67;;;3.30;;
34491;SDS011;20737;49.908;8.126;2023-04-28T13:46:06;3.38;;;3.00;;
34491;SDS011;20737;49.908;8.126;2023-04-28T13:48:34;5.43;;;3.63;;
34491;SDS011;20737;49.908;8.126;2023-04-28T13:51:02;5.38;;;3.95;;
34491;SDS011;20737;49.908;8.126;2023-04-28T13:53:33;4.15;;;3.60;;
34491;SDS011;20737;49.908;8.126;2023-04-28T13:56:01;5.57;;;4.15;;
34491;SDS011;20737;49.908;8.126;2023-04-28T13:58:28;4.13;;;3.63;;
34491;SDS011;20737;49.908;8.126;2023-04-28T14:00:55;5.20;;;4.32;;
34491;SDS011;20737;49.908;8.126;2023-04-28T14:03:22;4.30;;;3.90;;
34491;SDS011;20737;49.908;8.126;2023-04-28T14:05:50;4.20;;;3.53;;
34491;SDS011;20737;49.908;8.126;2023-04-28T14:08:20;2.97;;;2.72;;
34491;SDS011;20737;49.908;8.126;2023-04-28T14:10:47;3.90;;;3.35;;
34491;SDS011;20737;49.908;8.126;2023-04-28T14:13:14;4.13;;;2.90;;
34491;SDS011;20737;49.908;8.126;2023-04-28T14:15:42;2.58;;;2.38;;
34491;SDS011;20737;49.908;8.126;2023-04-28T14:18:09;4.68;;;2.67;;
34491;SDS011;20737;49.908;8.126;2023-04-28T14:20:37;2.40;;;2.20;;
34491;SDS011;20737;49.908;8.126;2023-04-28T14:23:03;3.13;;;2.75;;
34491;SDS011;20737;49.908;8.126;2023-04-28T14:25:34;2.95;;;2.22;;
34491;SDS011;20737;49.908;8.126;2023-04-28T14:28:01;3.60;;;2.53;;
34491;SDS011;20737;49.908;8.126;2023-04-28T14:30:28;3.10;;;2.38;;
34491;SDS011;20737;49.908;8.126;2023-04-28T14:32:55;2.83;;;2.30;;
34491;SDS011;20737;49.908;8.126;2023-04-28T14:35:22;4.05;;;2.60;;
34491;SDS011;20737;49.908;8.126;2023-04-28T14:37:50;2.38;;;2.17;;
34491;SDS011;20737;49.908;8.126;2023-04-28T14:40:17;3.03;;;2.20;;
34491;SDS011;20737;49.908;8.126;2023-04-28T14:42:45;2.85;;;2.03;;
34491;SDS011;20737;49.908;8.126;2023-04-28T14:45:12;2.10;;;1.90;;
34491;SDS011;20737;49.908;8.126;2023-04-28T14:47:39;2.40;;;2.15;;
34491;SDS011;20737;49.908;8.126;2023-04-28T14:50:07;2.00;;;1.90;;
34491;SDS011;20737;49.908;8.126;2023-04-28T14:52:35;2.80;;;2.13;;
34491;SDS011;20737;49.908;8.126;2023-04-28T14:55:02;4.47;;;2.17;;
34491;SDS011;20737;49.908;8.126;2023-04-28T14:57:31;3.42;;;2.47;;